createdAt,value
2023-03-15T00:00:42.695Z,1.37
2023-03-15T00:02:47.900Z,1.33
2023-03-15T00:04:43.506Z,1.31
2023-03-15T00:06:40.421Z,1.28
2023-03-15T00:08:36.538Z,1.23
2023-03-15T00:10:34.120Z,1.18
2023-03-15T00:12:29.540Z,1.12
2023-03-15T00:14:26.019Z,1.11
2023-03-15T00:16:23.247Z,1.10
2023-03-15T00:18:21.850Z,1.03
2023-03-15T00:20:19.150Z,1.03
2023-03-15T00:22:14.836Z,0.98
2023-03-15T00:24:10.777Z,0.92
2023-03-15T00:26:08.347Z,0.91
2023-03-15T00:28:03.619Z,0.97
2023-03-15T00:29:58.760Z,0.97
2023-03-15T00:31:54.333Z,0.94
2023-03-15T00:33:53.721Z,0.91
2023-03-15T00:35:49.257Z,0.92
2023-03-15T00:37:45.294Z,0.93
2023-03-15T00:39:41.241Z,0.90
2023-03-15T00:41:39.028Z,0.91
2023-03-15T00:43:36.400Z,0.84
2023-03-15T00:45:32.699Z,0.80
2023-03-15T00:47:28.355Z,0.89
2023-03-15T00:49:23.507Z,0.83
2023-03-15T00:51:22.170Z,0.79
2023-03-15T00:53:17.354Z,0.83
2023-03-15T00:55:16.624Z,0.78
2023-03-15T00:57:16.082Z,0.80
2023-03-15T00:59:11.777Z,0.77
2023-03-15T01:01:09.926Z,0.76
2023-03-15T01:03:05.563Z,0.77
2023-03-15T01:05:02.628Z,0.80
2023-03-15T01:06:59.001Z,0.78
2023-03-15T01:08:56.482Z,0.73
2023-03-15T01:10:52.188Z,0.69
2023-03-15T01:12:50.157Z,0.69
2023-03-15T01:14:45.977Z,0.66
2023-03-15T01:16:41.519Z,0.72
2023-03-15T01:18:37.797Z,0.64
2023-03-15T01:20:33.034Z,0.64
2023-03-15T01:22:29.466Z,0.56
2023-03-15T01:24:24.693Z,0.55
2023-03-15T01:26:21.021Z,0.61
2023-03-15T01:28:19.076Z,0.57
2023-03-15T01:30:16.274Z,0.45
2023-03-15T01:32:12.805Z,0.47
2023-03-15T01:34:08.868Z,0.50
2023-03-15T01:36:06.204Z,0.60
2023-03-15T01:38:01.662Z,0.53
2023-03-15T01:39:57.262Z,0.55
2023-03-15T01:41:52.770Z,0.54
2023-03-15T01:43:50.890Z,0.59
2023-03-15T01:46:01.612Z,0.53
2023-03-15T01:47:57.292Z,0.56
2023-03-15T01:49:57.741Z,0.58
2023-03-15T01:51:56.371Z,0.50
2023-03-15T01:53:57.353Z,0.50
2023-03-15T01:55:54.030Z,0.43
2023-03-15T01:57:56.349Z,0.42
2023-03-15T01:59:59.544Z,0.46
2023-03-15T02:01:57.095Z,0.47
2023-03-15T02:03:59.453Z,0.42
2023-03-15T02:06:01.613Z,0.41
2023-03-15T02:07:58.592Z,0.34
2023-03-15T02:10:02.010Z,0.35
2023-03-15T02:11:58.236Z,0.30
2023-03-15T02:13:55.510Z,0.31
2023-03-15T02:15:54.980Z,0.35
2023-03-15T02:17:51.986Z,0.39
2023-03-15T02:19:55.406Z,0.37
2023-03-15T02:22:04.138Z,0.31
2023-03-15T02:24:08.619Z,0.25
2023-03-15T02:26:17.491Z,0.34
2023-03-15T02:28:17.562Z,0.33
2023-03-15T02:30:14.595Z,0.39
2023-03-15T02:32:10.681Z,0.35
2023-03-15T02:34:07.368Z,0.36
2023-03-15T02:36:11.565Z,0.32
2023-03-15T02:38:07.019Z,0.34
2023-03-15T02:40:01.868Z,0.29
2023-03-15T02:42:00.123Z,0.26
2023-03-15T02:44:03.067Z,0.30
2023-03-15T02:45:59.067Z,0.33
2023-03-15T02:47:54.675Z,0.23
2023-03-15T02:49:54.213Z,0.20
2023-03-15T02:51:49.108Z,0.10
2023-03-15T02:53:44.429Z,0.09
2023-03-15T02:55:39.391Z,0.13
2023-03-15T02:57:34.630Z,0.12
2023-03-15T02:59:32.149Z,0.19
2023-03-15T03:01:27.483Z,0.12
2023-03-15T03:03:22.411Z,0.21
2023-03-15T03:05:19.155Z,0.13
2023-03-15T03:07:14.158Z,0.12
2023-03-15T03:09:09.532Z,0.09
2023-03-15T03:11:04.551Z,0.12
2023-03-15T03:12:59.864Z,0.10
2023-03-15T03:14:57.360Z,0.13
2023-03-15T03:16:52.599Z,0.14
2023-03-15T03:18:47.504Z,0.16
2023-03-15T03:20:46.110Z,0.24
2023-03-15T03:22:41.139Z,0.27
2023-03-15T03:24:36.521Z,0.23
2023-03-15T03:26:32.823Z,0.28
2023-03-15T03:28:30.528Z,0.27
2023-03-15T03:30:28.179Z,0.21
2023-03-15T03:32:23.492Z,0.29
2023-03-15T03:34:19.840Z,0.28
2023-03-15T03:36:15.846Z,0.26
2023-03-15T03:38:10.991Z,0.26
2023-03-15T03:40:07.835Z,0.21
2023-03-15T03:42:02.732Z,0.28
2023-03-15T03:43:58.004Z,0.23
2023-03-15T03:45:55.562Z,0.25
2023-03-15T03:47:51.797Z,0.27
2023-03-15T03:49:46.723Z,0.31
2023-03-15T03:51:41.989Z,0.27
2023-03-15T03:53:36.981Z,0.33
2023-03-15T03:55:34.112Z,0.32
2023-03-15T03:57:29.310Z,0.34
2023-03-15T03:59:24.786Z,0.32
2023-03-15T04:01:22.752Z,0.35
2023-03-15T04:03:18.210Z,0.36
2023-03-15T04:05:13.200Z,0.35
2023-03-15T04:07:09.150Z,0.32
2023-03-15T04:09:05.551Z,0.36
2023-03-15T04:11:03.936Z,0.28
2023-03-15T04:13:00.418Z,0.32
2023-03-15T04:14:56.139Z,0.30
2023-03-15T04:16:54.845Z,0.24
2023-03-15T04:18:50.553Z,0.20
2023-03-15T04:20:47.969Z,0.09
2023-03-15T04:22:49.691Z,0.04
2023-03-15T04:24:45.834Z,0.07
2023-03-15T04:26:42.030Z,0.07
2023-03-15T04:28:38.099Z,0.12
2023-03-15T04:30:33.685Z,0.13
2023-03-15T04:32:31.495Z,0.15
2023-03-15T04:34:28.792Z,0.07
2023-03-15T04:36:24.794Z,0.07
2023-03-15T04:38:19.746Z,-0.06
2023-03-15T04:40:15.626Z,-0.07
2023-03-15T04:42:10.975Z,-0.01
2023-03-15T04:44:06.516Z,-0.05
2023-03-15T04:46:01.465Z,-0.12
2023-03-15T04:47:59.128Z,-0.18
2023-03-15T04:49:54.401Z,-0.21
2023-03-15T04:51:49.438Z,-0.21
2023-03-15T04:53:44.768Z,-0.22
2023-03-15T04:55:39.797Z,-0.19
2023-03-15T04:57:34.813Z,-0.21
2023-03-15T04:59:30.101Z,-0.28
2023-03-15T05:01:30.592Z,-0.33
2023-03-15T05:03:28.456Z,-0.36
2023-03-15T05:05:24.838Z,-0.38
2023-03-15T05:07:20.230Z,-0.36
2023-03-15T05:09:19.012Z,-0.41
2023-03-15T05:11:14.340Z,-0.35
2023-03-15T05:13:09.330Z,-0.40
2023-03-15T05:15:04.609Z,-0.42
2023-03-15T05:16:59.755Z,-0.42
2023-03-15T05:18:57.694Z,-0.46
2023-03-15T05:20:55.775Z,-0.47
2023-03-15T05:22:53.212Z,-0.47
2023-03-15T05:24:48.118Z,-0.53
2023-03-15T05:26:46.584Z,-0.49
2023-03-15T05:28:41.596Z,-0.49
2023-03-15T05:30:36.850Z,-0.50
2023-03-15T05:32:34.626Z,-0.49
2023-03-15T05:34:32.672Z,-0.49
2023-03-15T05:36:27.643Z,-0.47
2023-03-15T05:38:26.437Z,-0.47
2023-03-15T05:40:21.701Z,-0.39
2023-03-15T05:42:22.138Z,-0.40
2023-03-15T05:44:17.117Z,-0.39
2023-03-15T05:46:12.496Z,-0.38
2023-03-15T05:48:08.579Z,-0.30
2023-03-15T05:50:07.368Z,-0.32
2023-03-15T05:52:02.316Z,-0.34
2023-03-15T05:53:57.581Z,-0.27
2023-03-15T05:55:52.556Z,-0.27
2023-03-15T05:57:47.788Z,-0.25
2023-03-15T05:59:42.816Z,-0.22
2023-03-15T06:01:38.128Z,-0.18
2023-03-15T06:03:33.621Z,-0.13
2023-03-15T06:05:31.668Z,-0.02
2023-03-15T06:07:26.732Z,-0.05
2023-03-15T06:09:22.100Z,0.01
2023-03-15T06:11:17.108Z,0.01
2023-03-15T06:13:12.431Z,-0.02
2023-03-15T06:15:08.574Z,-0.01
2023-03-15T06:17:03.876Z,-0.05
2023-03-15T06:18:58.849Z,-0.05
2023-03-15T06:20:57.030Z,-0.01
2023-03-15T06:22:52.815Z,0.07
2023-03-15T06:24:48.528Z,0.08
2023-03-15T06:26:43.863Z,0.09
2023-03-15T06:28:39.656Z,0.09
2023-03-15T06:30:35.085Z,0.12
2023-03-15T06:32:31.023Z,0.08
2023-03-15T06:34:26.263Z,0.02
2023-03-15T06:36:24.918Z,0.05
2023-03-15T06:38:20.108Z,0.09
2023-03-15T06:40:16.228Z,0.10
2023-03-15T06:42:13.158Z,0.12
2023-03-15T06:44:08.862Z,0.19
2023-03-15T06:46:04.214Z,0.03
2023-03-15T06:47:59.845Z,-0.04
2023-03-15T06:49:56.817Z,-0.09
2023-03-15T06:51:55.235Z,-0.06
2023-03-15T06:53:50.541Z,-0.07
2023-03-15T06:55:46.475Z,-0.07
2023-03-15T06:57:44.303Z,-0.07
2023-03-15T06:59:40.311Z,0.00
2023-03-15T07:01:35.660Z,0.06
2023-03-15T07:03:31.209Z,0.06
2023-03-15T07:05:26.482Z,0.11
2023-03-15T07:07:24.700Z,0.11
2023-03-15T07:09:20.287Z,0.10
2023-03-15T07:11:16.242Z,0.11
2023-03-15T07:13:11.957Z,0.14
2023-03-15T07:15:08.221Z,0.23
2023-03-15T07:17:03.425Z,0.36
2023-03-15T07:19:00.056Z,0.43
2023-03-15T07:21:02.064Z,0.56
2023-03-15T07:23:00.325Z,0.70
2023-03-15T07:24:55.682Z,0.74
2023-03-15T07:26:54.737Z,0.83
2023-03-15T07:28:50.004Z,0.92
2023-03-15T07:30:45.593Z,0.91
2023-03-15T07:32:40.775Z,0.92
2023-03-15T07:34:36.200Z,1.04
2023-03-15T07:36:32.311Z,1.08
2023-03-15T07:38:31.535Z,1.05
2023-03-15T07:40:27.788Z,1.08
2023-03-15T07:42:23.098Z,1.14
2023-03-15T07:44:18.216Z,1.19
2023-03-15T07:46:13.821Z,1.18
2023-03-15T07:48:09.366Z,1.20
2023-03-15T07:50:04.632Z,1.26
2023-03-15T07:51:59.549Z,1.33
2023-03-15T07:53:57.392Z,1.31
2023-03-15T07:55:52.503Z,1.34
2023-03-15T07:57:50.307Z,1.36
2023-03-15T07:59:46.138Z,1.37
2023-03-15T08:01:41.468Z,1.41
2023-03-15T08:03:36.510Z,1.55
2023-03-15T08:05:31.785Z,1.50
2023-03-15T08:07:26.753Z,1.49
2023-03-15T08:09:25.004Z,1.48
2023-03-15T08:11:19.966Z,1.55
2023-03-15T08:13:15.470Z,1.67
2023-03-15T08:15:11.648Z,1.75
2023-03-15T08:17:07.262Z,1.68
2023-03-15T08:19:02.150Z,1.73
2023-03-15T08:20:57.630Z,1.73
2023-03-15T08:22:53.046Z,1.80
2023-03-15T08:24:53.267Z,1.72
2023-03-15T08:26:48.248Z,1.73
2023-03-15T08:28:43.546Z,1.76
2023-03-15T08:30:38.624Z,1.78
2023-03-15T08:32:34.242Z,1.76
2023-03-15T08:34:29.228Z,1.72
2023-03-15T08:36:24.475Z,1.75
2023-03-15T08:38:19.454Z,1.75
2023-03-15T08:40:19.092Z,1.91
2023-03-15T08:42:14.288Z,2.00
2023-03-15T08:44:09.752Z,2.04
2023-03-15T08:46:04.814Z,1.91
2023-03-15T08:48:00.418Z,1.97
2023-03-15T08:49:55.323Z,1.95
2023-03-15T08:51:51.128Z,2.06
2023-03-15T08:53:46.039Z,2.07
2023-03-15T08:55:44.235Z,2.12
2023-03-15T08:57:39.596Z,2.21
2023-03-15T08:59:35.482Z,2.33
2023-03-15T09:01:30.384Z,2.34
2023-03-15T09:03:26.088Z,2.31
2023-03-15T09:05:21.275Z,2.36
2023-03-15T09:07:16.487Z,2.31
2023-03-15T09:09:11.656Z,2.39
2023-03-15T09:11:09.643Z,2.44
2023-03-15T09:13:04.752Z,2.47
2023-03-15T09:14:59.980Z,2.49
2023-03-15T09:16:54.981Z,2.56
2023-03-15T09:18:50.218Z,2.65
2023-03-15T09:20:45.170Z,2.73
2023-03-15T09:22:40.653Z,2.69
2023-03-15T09:24:35.907Z,2.62
2023-03-15T09:26:33.871Z,2.52
2023-03-15T09:28:29.022Z,2.47
2023-03-15T09:30:24.859Z,2.52
2023-03-15T09:32:21.125Z,2.69
2023-03-15T09:34:17.036Z,2.86
2023-03-15T09:36:12.350Z,2.86
2023-03-15T09:38:07.914Z,2.92
2023-03-15T09:40:04.775Z,3.08
2023-03-15T09:42:06.449Z,3.19
2023-03-15T09:44:19.650Z,3.31
2023-03-15T09:46:28.638Z,2.94
2023-03-15T09:48:32.354Z,2.73
2023-03-15T09:50:32.286Z,2.93
2023-03-15T09:52:40.700Z,3.02
2023-03-15T09:54:44.605Z,2.91
2023-03-15T09:56:46.158Z,2.89
2023-03-15T09:58:44.372Z,3.15
2023-03-15T10:00:42.870Z,3.14
2023-03-15T10:02:40.299Z,3.13
2023-03-15T10:04:42.190Z,3.14
2023-03-15T10:06:40.482Z,3.02
2023-03-15T10:08:35.682Z,2.97
2023-03-15T10:10:36.009Z,3.10
2023-03-15T10:12:41.226Z,2.85
2023-03-15T10:14:57.704Z,3.03
2023-03-15T10:16:54.340Z,3.07
2023-03-15T10:19:01.952Z,3.03
2023-03-15T10:21:03.644Z,3.23
2023-03-15T10:23:03.126Z,3.29
2023-03-15T10:25:03.207Z,3.30
2023-03-15T10:27:02.714Z,3.41
2023-03-15T10:28:58.092Z,3.30
2023-03-15T10:30:58.017Z,3.57
2023-03-15T10:32:59.055Z,3.66
2023-03-15T10:34:58.072Z,3.83
2023-03-15T10:36:57.311Z,3.99
2023-03-15T10:38:53.118Z,4.15
2023-03-15T10:40:50.900Z,4.31
2023-03-15T10:42:47.412Z,4.38
2023-03-15T10:44:42.587Z,4.66
2023-03-15T10:46:40.864Z,4.68
2023-03-15T10:48:38.217Z,4.79
2023-03-15T10:50:35.736Z,5.03
2023-03-15T10:52:36.202Z,4.90
2023-03-15T10:54:34.258Z,4.80
2023-03-15T10:56:33.482Z,4.87
2023-03-15T10:58:31.624Z,4.54
2023-03-15T11:00:32.276Z,4.75
2023-03-15T11:02:30.184Z,4.78
2023-03-15T11:04:27.478Z,4.88
2023-03-15T11:06:25.361Z,4.97
2023-03-15T11:08:22.587Z,5.06
2023-03-15T11:10:25.306Z,5.33
2023-03-15T11:12:26.002Z,5.51
2023-03-15T11:14:21.574Z,5.46
2023-03-15T11:16:23.597Z,5.47
2023-03-15T11:18:29.905Z,5.41
2023-03-15T11:20:34.074Z,5.12
2023-03-15T11:22:30.176Z,5.41
2023-03-15T11:24:28.489Z,5.55
2023-03-15T11:26:33.587Z,5.66
2023-03-15T11:28:31.454Z,6.05
2023-03-15T11:30:32.249Z,5.84
2023-03-15T11:32:29.856Z,5.82
2023-03-15T11:34:37.777Z,5.88
2023-03-15T11:36:37.412Z,6.46
2023-03-15T11:38:36.147Z,6.42
2023-03-15T11:40:36.019Z,6.21
2023-03-15T11:42:35.377Z,5.68
2023-03-15T11:44:36.408Z,5.74
2023-03-15T11:46:35.881Z,5.55
2023-03-15T11:48:40.763Z,5.77
2023-03-15T11:50:40.157Z,6.14
2023-03-15T11:52:35.407Z,5.56
2023-03-15T11:54:33.062Z,5.55
2023-03-15T11:56:29.974Z,5.70
2023-03-15T11:58:34.824Z,5.84
2023-03-15T12:00:56.434Z,5.87
2023-03-15T12:02:54.589Z,6.01
2023-03-15T12:04:50.409Z,6.15
2023-03-15T12:06:48.320Z,6.36
2023-03-15T12:08:46.385Z,6.13
2023-03-15T12:10:49.829Z,5.85
2023-03-15T12:12:49.663Z,5.59
2023-03-15T12:14:44.558Z,6.08
2023-03-15T12:16:45.026Z,6.52
2023-03-15T12:18:46.531Z,6.63
2023-03-15T12:20:43.445Z,7.09
2023-03-15T12:22:44.910Z,6.94
2023-03-15T12:24:42.255Z,7.38
2023-03-15T12:26:46.266Z,8.31
2023-03-15T12:28:45.364Z,8.73
2023-03-15T12:30:43.582Z,8.98
2023-03-15T12:32:54.653Z,8.08
2023-03-15T12:34:51.694Z,8.35
2023-03-15T12:36:51.696Z,8.55
2023-03-15T12:39:01.474Z,8.50
2023-03-15T12:40:58.165Z,8.10
2023-03-15T12:43:04.759Z,7.30
2023-03-15T12:45:46.121Z,7.65
2023-03-15T12:48:12.777Z,7.69
2023-03-15T12:50:52.842Z,8.43
2023-03-15T12:52:53.526Z,8.57
2023-03-15T12:54:53.410Z,8.44
2023-03-15T12:56:54.424Z,9.38
2023-03-15T12:58:51.759Z,10.33
2023-03-15T13:00:48.609Z,11.06
2023-03-15T13:02:48.592Z,10.91
2023-03-15T13:04:44.773Z,10.18
2023-03-15T13:07:07.488Z,10.20
2023-03-15T13:09:07.336Z,9.82
2023-03-15T13:11:16.781Z,9.12
2023-03-15T13:13:32.378Z,9.29
2023-03-15T13:15:35.283Z,9.06
2023-03-15T13:17:38.995Z,9.07
2023-03-15T13:19:40.341Z,9.79
2023-03-15T13:21:39.516Z,10.87
2023-03-15T13:23:38.032Z,10.59
2023-03-15T13:25:41.325Z,10.39
2023-03-15T13:27:47.994Z,11.42
2023-03-15T13:29:43.331Z,12.15
2023-03-15T13:31:38.449Z,11.46
2023-03-15T13:33:35.008Z,10.24
2023-03-15T13:35:30.267Z,10.59
2023-03-15T13:37:29.220Z,9.53
2023-03-15T13:39:29.770Z,10.16
2023-03-15T13:41:27.205Z,9.98
2023-03-15T13:43:22.584Z,9.67
2023-03-15T13:45:19.320Z,9.57
2023-03-15T13:47:23.050Z,9.63
2023-03-15T13:49:18.544Z,9.57
2023-03-15T13:51:20.890Z,9.96
2023-03-15T13:53:22.081Z,9.82
2023-03-15T13:55:25.219Z,9.40
2023-03-15T13:57:22.490Z,9.43
2023-03-15T13:59:17.768Z,9.72
2023-03-15T14:01:15.644Z,9.11
2023-03-15T14:03:17.073Z,8.76
2023-03-15T14:05:15.494Z,8.27
2023-03-15T14:07:25.957Z,7.03
2023-03-15T14:09:23.806Z,7.12
2023-03-15T14:11:37.365Z,6.99
2023-03-15T14:13:34.940Z,7.50
2023-03-15T14:15:44.245Z,8.53
2023-03-15T14:17:39.236Z,9.26
2023-03-15T14:19:37.382Z,9.87
2023-03-15T14:21:34.917Z,10.43
2023-03-15T14:23:32.312Z,10.22
2023-03-15T14:25:27.314Z,10.26
2023-03-15T14:27:29.770Z,10.73
2023-03-15T14:29:30.708Z,10.60
2023-03-15T14:31:27.905Z,10.46
2023-03-15T14:33:29.792Z,10.60
2023-03-15T14:35:27.319Z,10.68
2023-03-15T14:37:32.865Z,10.72
2023-03-15T14:39:30.744Z,10.88
2023-03-15T14:41:33.556Z,10.90
2023-03-15T14:43:31.502Z,9.88
2023-03-15T14:45:27.530Z,10.01
2023-03-15T14:47:22.982Z,9.98
2023-03-15T14:49:25.153Z,10.34
2023-03-15T14:51:23.480Z,10.68
2023-03-15T14:53:21.459Z,11.00
2023-03-15T14:55:19.394Z,11.71
2023-03-15T14:57:14.462Z,12.23
2023-03-15T14:59:15.659Z,12.43
2023-03-15T15:01:13.015Z,12.63
2023-03-15T15:03:17.422Z,12.34
2023-03-15T15:05:24.615Z,12.49
2023-03-15T15:07:20.665Z,12.29
2023-03-15T15:09:15.763Z,12.45
2023-03-15T15:11:11.788Z,12.22
2023-03-15T15:13:07.615Z,11.66
2023-03-15T15:15:09.943Z,11.17
2023-03-15T15:17:04.899Z,10.81
2023-03-15T15:19:00.131Z,10.45
2023-03-15T15:20:57.478Z,10.69
2023-03-15T15:22:52.946Z,10.70
2023-03-15T15:24:49.670Z,10.13
2023-03-15T15:26:46.742Z,9.95
2023-03-15T15:28:42.362Z,10.17
2023-03-15T15:30:41.009Z,10.75
2023-03-15T15:32:36.455Z,10.96
2023-03-15T15:34:34.106Z,10.94
2023-03-15T15:36:32.687Z,11.26
2023-03-15T15:38:38.441Z,11.12
2023-03-15T15:40:35.499Z,11.44
2023-03-15T15:42:30.755Z,10.97
2023-03-15T15:44:27.548Z,11.16
2023-03-15T15:46:26.556Z,11.20
2023-03-15T15:48:21.753Z,10.91
2023-03-15T15:50:18.922Z,10.32
2023-03-15T15:52:17.257Z,9.78
2023-03-15T15:54:17.283Z,9.81
2023-03-15T15:56:14.669Z,9.32
2023-03-15T15:58:11.981Z,9.28
2023-03-15T16:00:08.601Z,9.23
2023-03-15T16:02:17.363Z,9.16
2023-03-15T16:04:12.526Z,8.75
2023-03-15T16:06:08.220Z,8.36
2023-03-15T16:08:06.786Z,8.72
2023-03-15T16:10:03.582Z,8.02
2023-03-15T16:11:58.749Z,7.67
2023-03-15T16:13:55.849Z,7.58
2023-03-15T16:15:50.839Z,7.48
2023-03-15T16:17:49.361Z,7.80
2023-03-15T16:19:44.318Z,7.70
2023-03-15T16:21:44.060Z,7.69
2023-03-15T16:23:39.058Z,7.86
2023-03-15T16:25:38.003Z,7.93
2023-03-15T16:27:33.172Z,7.73
2023-03-15T16:29:35.447Z,7.81
2023-03-15T16:31:34.608Z,8.10
2023-03-15T16:33:34.695Z,8.23
2023-03-15T16:35:34.695Z,8.03
2023-03-15T16:37:34.326Z,8.15
2023-03-15T16:39:30.084Z,8.50
2023-03-15T16:41:25.693Z,8.68
2023-03-15T16:43:21.796Z,8.71
2023-03-15T16:45:18.465Z,8.87
2023-03-15T16:47:14.130Z,8.84
2023-03-15T16:49:15.375Z,8.77
2023-03-15T16:51:12.786Z,8.69
2023-03-15T16:53:11.180Z,8.66
2023-03-15T16:55:06.811Z,8.31
2023-03-15T16:57:02.233Z,7.86
2023-03-15T16:58:57.691Z,7.37
2023-03-15T17:00:53.090Z,7.28
2023-03-15T17:02:49.705Z,7.08
2023-03-15T17:04:47.610Z,7.04
2023-03-15T17:06:42.679Z,7.07
2023-03-15T17:08:37.974Z,7.06
2023-03-15T17:10:34.855Z,7.14
2023-03-15T17:12:31.584Z,7.00
2023-03-15T17:14:35.254Z,7.03
2023-03-15T17:16:31.817Z,6.81
2023-03-15T17:18:28.616Z,6.63
2023-03-15T17:20:29.754Z,6.97
2023-03-15T17:22:24.941Z,6.60
2023-03-15T17:24:20.428Z,6.40
2023-03-15T17:26:17.650Z,6.25
2023-03-15T17:28:13.118Z,6.12
2023-03-15T17:30:18.186Z,6.30
2023-03-15T17:32:14.699Z,6.26
2023-03-15T17:34:09.781Z,5.97
2023-03-15T17:36:09.633Z,5.83
2023-03-15T17:38:05.967Z,5.71
2023-03-15T17:40:08.937Z,5.44
2023-03-15T17:42:04.423Z,5.46
2023-03-15T17:44:00.089Z,5.39
2023-03-15T17:45:55.505Z,5.31
2023-03-15T17:47:51.225Z,5.23
2023-03-15T17:49:48.278Z,5.24
2023-03-15T17:51:46.626Z,5.53
2023-03-15T17:53:41.921Z,5.30
2023-03-15T17:55:37.559Z,5.19
2023-03-15T17:57:32.914Z,5.06
2023-03-15T17:59:29.234Z,5.11
2023-03-15T18:01:27.533Z,5.09
2023-03-15T18:03:24.536Z,5.15
2023-03-15T18:05:21.729Z,5.02
2023-03-15T18:07:19.762Z,4.98
2023-03-15T18:09:16.087Z,5.04
2023-03-15T18:11:19.931Z,4.82
2023-03-15T18:13:17.585Z,4.97
2023-03-15T18:15:15.066Z,4.97
2023-03-15T18:17:10.138Z,4.89
2023-03-15T18:19:05.490Z,4.66
2023-03-15T18:21:00.611Z,4.61
2023-03-15T18:22:58.450Z,4.49
2023-03-15T18:24:53.350Z,4.44
2023-03-15T18:26:48.591Z,4.51
2023-03-15T18:28:43.530Z,4.41
2023-03-15T18:30:39.874Z,4.57
2023-03-15T18:32:34.949Z,4.47
2023-03-15T18:34:30.544Z,4.46
2023-03-15T18:36:26.038Z,4.19
2023-03-15T18:38:23.968Z,4.31
2023-03-15T18:40:21.652Z,4.27
2023-03-15T18:42:16.615Z,4.31
2023-03-15T18:44:12.617Z,4.20
2023-03-15T18:46:07.666Z,4.29
2023-03-15T18:48:04.350Z,4.35
2023-03-15T18:50:09.605Z,4.37
2023-03-15T18:52:05.548Z,4.32
2023-03-15T18:54:03.019Z,4.21
2023-03-15T18:55:58.284Z,4.30
2023-03-15T18:57:54.280Z,4.20
2023-03-15T18:59:49.956Z,4.43
2023-03-15T19:01:45.166Z,4.28
2023-03-15T19:03:40.913Z,4.31
2023-03-15T19:05:38.902Z,4.28
2023-03-15T19:07:34.213Z,4.20
2023-03-15T19:09:31.691Z,4.32
2023-03-15T19:11:31.412Z,4.39
2023-03-15T19:13:26.260Z,4.38
2023-03-15T19:15:23.185Z,4.51
2023-03-15T19:17:18.117Z,4.59
2023-03-15T19:19:13.349Z,4.57
2023-03-15T19:21:08.833Z,4.65
2023-03-15T19:23:04.085Z,4.59
2023-03-15T19:25:01.553Z,4.58
2023-03-15T19:26:56.797Z,4.54
2023-03-15T19:28:51.709Z,4.44
2023-03-15T19:30:46.954Z,4.19
2023-03-15T19:32:43.097Z,4.07
2023-03-15T19:34:38.159Z,4.23
2023-03-15T19:36:33.861Z,4.20
2023-03-15T19:38:28.902Z,4.22
2023-03-15T19:40:27.553Z,4.09
2023-03-15T19:42:22.575Z,3.94
2023-03-15T19:44:18.056Z,3.98
2023-03-15T19:46:14.150Z,4.15
2023-03-15T19:48:09.973Z,3.99
2023-03-15T19:50:05.396Z,3.89
2023-03-15T19:52:00.708Z,3.87
2023-03-15T19:53:56.522Z,3.86
2023-03-15T19:55:54.385Z,3.81
2023-03-15T19:57:50.339Z,3.89
2023-03-15T19:59:45.676Z,3.92
2023-03-15T20:01:41.243Z,3.91
2023-03-15T20:03:37.059Z,3.97
2023-03-15T20:05:32.371Z,3.92
2023-03-15T20:07:28.120Z,3.91
2023-03-15T20:09:23.561Z,3.86
2023-03-15T20:11:25.219Z,3.99
2023-03-15T20:13:20.613Z,4.04
2023-03-15T20:15:18.756Z,4.02
2023-03-15T20:17:15.135Z,3.90
2023-03-15T20:19:10.828Z,3.66
2023-03-15T20:21:06.377Z,3.74
2023-03-15T20:23:02.111Z,3.79
2023-03-15T20:24:57.644Z,3.73
2023-03-15T20:26:56.480Z,3.67
2023-03-15T20:28:51.720Z,3.54
2023-03-15T20:30:47.277Z,3.42
2023-03-15T20:32:42.679Z,3.36
2023-03-15T20:34:38.348Z,3.24
2023-03-15T20:36:33.754Z,3.26
2023-03-15T20:38:29.348Z,3.36
2023-03-15T20:40:25.174Z,3.38
2023-03-15T20:42:24.119Z,3.35
2023-03-15T20:44:19.565Z,3.39
2023-03-15T20:46:16.822Z,3.42
2023-03-15T20:48:12.274Z,3.39
2023-03-15T20:50:08.296Z,3.29
2023-03-15T20:52:03.500Z,3.06
2023-03-15T20:53:58.729Z,2.97
2023-03-15T20:55:53.981Z,2.99
2023-03-15T20:57:53.414Z,3.03
2023-03-15T20:59:48.494Z,2.97
2023-03-15T21:01:43.808Z,2.79
2023-03-15T21:03:39.812Z,2.74
2023-03-15T21:05:35.653Z,2.73
2023-03-15T21:07:30.569Z,2.73
2023-03-15T21:09:25.954Z,2.51
2023-03-15T21:11:20.924Z,2.42
2023-03-15T21:13:18.786Z,2.53
2023-03-15T21:15:17.617Z,2.49
2023-03-15T21:17:14.378Z,2.42
2023-03-15T21:19:09.357Z,2.26
2023-03-15T21:21:06.397Z,2.26
2023-03-15T21:23:01.846Z,2.15
2023-03-15T21:24:57.091Z,2.28
2023-03-15T21:26:54.737Z,2.18
2023-03-15T21:28:52.586Z,2.12
2023-03-15T21:30:47.473Z,2.06
2023-03-15T21:32:43.072Z,1.95
2023-03-15T21:34:38.553Z,2.01
2023-03-15T21:36:34.087Z,1.88
2023-03-15T21:38:31.326Z,1.94
2023-03-15T21:40:26.690Z,1.92
2023-03-15T21:42:21.691Z,1.74
2023-03-15T21:44:19.716Z,1.72
2023-03-15T21:46:16.250Z,1.72
2023-03-15T21:48:11.802Z,1.77
2023-03-15T21:50:07.208Z,1.89
2023-03-15T21:52:02.937Z,1.83
2023-03-15T21:53:57.920Z,1.72
2023-03-15T21:55:53.750Z,1.55
2023-03-15T21:57:49.151Z,1.42
2023-03-15T21:59:46.983Z,1.44
2023-03-15T22:01:41.930Z,1.52
2023-03-15T22:03:39.374Z,1.46
2023-03-15T22:05:36.809Z,1.55
2023-03-15T22:07:32.106Z,1.54
2023-03-15T22:09:27.409Z,1.46
2023-03-15T22:11:22.888Z,1.46
2023-03-15T22:13:17.977Z,1.39
2023-03-15T22:15:17.141Z,1.36
2023-03-15T22:17:13.357Z,1.33
2023-03-15T22:19:09.218Z,1.35
2023-03-15T22:21:04.644Z,1.47
2023-03-15T22:22:59.951Z,1.32
2023-03-15T22:24:55.308Z,1.31
2023-03-15T22:26:52.982Z,1.23
2023-03-15T22:28:48.004Z,1.26
2023-03-15T22:30:48.950Z,1.15
2023-03-15T22:32:44.908Z,1.15
2023-03-15T22:34:40.581Z,1.05
2023-03-15T22:36:36.541Z,1.19
2023-03-15T22:38:37.855Z,1.13
2023-03-15T22:40:33.117Z,1.15
2023-03-15T22:42:28.561Z,1.08
2023-03-15T22:44:23.680Z,1.00
2023-03-15T22:46:21.814Z,0.94
2023-03-15T22:48:17.061Z,0.85
2023-03-15T22:50:14.685Z,0.68
2023-03-15T22:52:10.555Z,0.67
2023-03-15T22:54:06.117Z,0.69
2023-03-15T22:56:02.112Z,0.70
2023-03-15T22:57:58.099Z,0.80
2023-03-15T22:59:53.460Z,0.80
2023-03-15T23:01:51.605Z,0.70
2023-03-15T23:03:46.964Z,0.68
2023-03-15T23:05:42.620Z,0.66
2023-03-15T23:07:37.737Z,0.55
2023-03-15T23:09:33.347Z,0.63
2023-03-15T23:11:28.431Z,0.57
2023-03-15T23:13:23.697Z,0.63
2023-03-15T23:15:18.810Z,0.63
2023-03-15T23:17:16.923Z,0.57
2023-03-15T23:19:13.327Z,0.62
2023-03-15T23:21:09.423Z,0.53
2023-03-15T23:23:04.450Z,0.50
2023-03-15T23:25:00.175Z,0.48
2023-03-15T23:26:57.033Z,0.53
2023-03-15T23:28:52.941Z,0.41
2023-03-15T23:30:47.901Z,0.43
2023-03-15T23:32:46.437Z,0.47
2023-03-15T23:34:42.679Z,0.50
2023-03-15T23:36:38.554Z,0.61
2023-03-15T23:38:34.448Z,0.76
2023-03-15T23:40:30.175Z,0.83
2023-03-15T23:42:26.244Z,0.82
2023-03-15T23:44:21.437Z,0.72
2023-03-15T23:46:17.251Z,0.76
2023-03-15T23:48:15.524Z,0.78
2023-03-15T23:50:12.634Z,0.76
2023-03-15T23:52:09.743Z,0.76
2023-03-15T23:54:05.380Z,0.59
2023-03-15T23:56:01.649Z,0.65
2023-03-15T23:57:56.753Z,0.72
2023-03-15T23:59:52.866Z,0.80
